Bon Ami, Texas
Current Conditions -  °F | °C
As of 7:55 AM on Thursday 30 Oct 2014 (Local Time) from KJAS Reporting Station
Haze Haze  
Wind Chill: 45°   Ceiling: Unl
Heat Index: 45°   Visibility: 5mi
Dew Point: 44°   Wind: 0mph
Humidity: 99%   Direction: NA
Pressure: 30.16"   Gusts: NA
Location:  30.7133°N, 93.9985°W
Report Text: KJAS 301255Z AUTO 00000KT 5SM BR CLR 07/07 A3016 RMK AO2 T00710069
Loading
Personal Weather Stations






























Interactive Weather Map
Tropical Storm Tracking
New forecast layout! Learn more

10-Day Weather Forecast

Advertisements
Track Severe Weather on mobile